Arequipa, Peru
Current Conditions -  °F | °C
As of 12:00 PM on Wednesday 26 Nov 2014 (Local Time) from SPQU Reporting Station
Clear Clear  
Wind Chill: 72°   Ceiling: Unl
Heat Index: 72°   Visibility: 6mi
Dew Point:   Wind: 12mph
Humidity: 8%   Direction: 230°SW
Pressure: 30.3"   Gusts: NA
Location:  16.39°S, 71.53°W
Report Text: SPQU 261700Z 23010KT 200V260 CAVOK 22/M14 Q1026 NOSIGRMK PP000
Loading
Personal Weather Stations






























Interactive Weather Map New forecast layout! Learn more

10-Day Weather Forecast

Advertisements
Track Severe Weather on mobile